createdAt,value
2022-07-29T00:00:09.987Z,977.68
2022-07-29T00:01:19.594Z,977.71
2022-07-29T00:02:10.968Z,977.69
2022-07-29T00:03:10.019Z,977.63
2022-07-29T00:04:09.961Z,977.63
2022-07-29T00:05:09.919Z,977.64
2022-07-29T00:06:09.920Z,977.56
2022-07-29T00:07:09.902Z,977.52
2022-07-29T00:08:12.491Z,977.53
2022-07-29T00:09:09.849Z,977.55
2022-07-29T00:10:09.833Z,977.52
2022-07-29T00:11:09.831Z,977.51
2022-07-29T00:12:09.821Z,977.49
2022-07-29T00:13:09.801Z,977.52
2022-07-29T00:14:09.783Z,977.49
2022-07-29T00:15:09.784Z,977.46
2022-07-29T00:16:09.811Z,977.49
2022-07-29T00:17:09.744Z,977.48
2022-07-29T00:18:09.742Z,977.41
2022-07-29T00:19:09.731Z,977.47
2022-07-29T00:20:09.703Z,977.49
2022-07-29T00:21:09.707Z,977.43
2022-07-29T00:22:09.684Z,977.41
2022-07-29T00:23:09.665Z,977.42
2022-07-29T00:24:09.651Z,977.46
2022-07-29T00:25:09.645Z,977.41
2022-07-29T00:26:09.635Z,977.43
2022-07-29T00:27:09.624Z,977.44
2022-07-29T00:28:09.592Z,977.43
2022-07-29T00:30:10.586Z,977.41
2022-07-29T00:31:09.610Z,977.44
2022-07-29T00:32:09.556Z,977.47
2022-07-29T00:33:09.546Z,977.47
2022-07-29T00:34:09.510Z,977.48
2022-07-29T00:35:09.507Z,977.46
2022-07-29T00:36:09.483Z,977.43
2022-07-29T00:37:09.477Z,977.47
2022-07-29T00:38:09.468Z,977.39
2022-07-29T00:39:09.457Z,977.36
2022-07-29T00:40:09.438Z,977.34
2022-07-29T00:41:09.417Z,977.34
2022-07-29T00:42:09.449Z,977.34
2022-07-29T00:43:09.399Z,977.32
2022-07-29T00:44:09.388Z,977.32
2022-07-29T00:45:09.371Z,977.30
2022-07-29T00:46:09.351Z,977.24
2022-07-29T00:47:09.415Z,977.21
2022-07-29T00:48:09.318Z,977.22
2022-07-29T00:49:09.358Z,977.23
2022-07-29T00:50:09.294Z,977.23
2022-07-29T00:51:09.289Z,977.21
2022-07-29T00:52:09.274Z,977.19
2022-07-29T00:53:09.273Z,977.10
2022-07-29T00:54:09.244Z,977.14
2022-07-29T00:55:09.233Z,977.08
2022-07-29T00:56:09.212Z,977.14
2022-07-29T00:57:09.224Z,977.11
2022-07-29T00:58:09.202Z,977.18
2022-07-29T00:59:09.176Z,977.19
2022-07-29T01:00:09.163Z,977.15
2022-07-29T01:01:09.239Z,977.24
2022-07-29T01:02:09.213Z,977.22
2022-07-29T01:03:09.153Z,977.17
2022-07-29T01:04:09.115Z,977.15
2022-07-29T01:05:09.105Z,977.14
2022-07-29T01:06:09.102Z,977.17
2022-07-29T01:07:09.078Z,977.15
2022-07-29T01:08:09.073Z,977.13
2022-07-29T01:09:09.046Z,977.13
2022-07-29T01:10:09.025Z,977.12
2022-07-29T01:11:09.023Z,977.15
2022-07-29T01:12:09.008Z,977.11
2022-07-29T01:13:09.005Z,977.10
2022-07-29T01:14:08.977Z,977.03
2022-07-29T01:15:08.979Z,977.03
2022-07-29T01:16:09.040Z,977.12
2022-07-29T01:17:08.942Z,977.09
2022-07-29T01:18:08.930Z,977.09
2022-07-29T01:19:08.906Z,977.14
2022-07-29T01:20:08.899Z,977.13
2022-07-29T01:21:08.877Z,977.17
2022-07-29T01:22:08.861Z,977.19
2022-07-29T01:23:08.867Z,977.17
2022-07-29T01:24:08.845Z,977.28
2022-07-29T01:25:08.831Z,977.32
2022-07-29T01:26:08.809Z,977.31
2022-07-29T01:27:08.793Z,977.35
2022-07-29T01:28:08.789Z,977.39
2022-07-29T01:29:08.780Z,977.45
2022-07-29T01:30:09.755Z,977.44
2022-07-29T01:31:08.774Z,977.47
2022-07-29T01:32:08.787Z,977.34
2022-07-29T01:33:09.734Z,977.45
2022-07-29T01:34:08.703Z,977.42
2022-07-29T01:35:08.681Z,977.43
2022-07-29T01:36:08.690Z,977.45
2022-07-29T01:37:08.660Z,977.44
2022-07-29T01:38:08.659Z,977.43
2022-07-29T01:39:08.638Z,977.37
2022-07-29T01:40:08.614Z,977.27
2022-07-29T01:41:08.612Z,977.25
2022-07-29T01:42:08.581Z,977.23
2022-07-29T01:43:08.602Z,977.25
2022-07-29T01:44:08.572Z,977.32
2022-07-29T01:45:08.557Z,977.31
2022-07-29T01:46:08.557Z,977.35
2022-07-29T01:47:08.533Z,977.38
2022-07-29T01:48:08.525Z,977.30
2022-07-29T01:49:08.574Z,977.23
2022-07-29T01:50:08.483Z,977.20
2022-07-29T01:51:08.479Z,977.27
2022-07-29T01:52:08.477Z,977.29
2022-07-29T01:53:08.455Z,977.27
2022-07-29T01:54:08.436Z,977.24
2022-07-29T01:55:08.427Z,977.25
2022-07-29T01:56:08.416Z,977.23
2022-07-29T01:57:08.386Z,977.25
2022-07-29T01:58:08.397Z,977.22
2022-07-29T01:59:08.357Z,977.20
2022-07-29T02:00:08.356Z,977.21
2022-07-29T02:01:08.340Z,977.25
2022-07-29T02:02:08.379Z,977.20
2022-07-29T02:03:08.324Z,977.21
2022-07-29T02:04:08.300Z,977.19
2022-07-29T02:05:08.311Z,977.21
2022-07-29T02:06:08.290Z,977.14
2022-07-29T02:07:08.260Z,977.15
2022-07-29T02:08:08.309Z,977.18
2022-07-29T02:09:08.498Z,977.19
2022-07-29T02:10:08.240Z,977.13
2022-07-29T02:11:08.219Z,977.23
2022-07-29T02:12:08.197Z,977.19
2022-07-29T02:13:08.202Z,977.17
2022-07-29T02:14:08.178Z,977.14
2022-07-29T02:15:08.152Z,977.15
2022-07-29T02:16:08.197Z,977.18
2022-07-29T02:17:08.148Z,977.25
2022-07-29T02:18:08.134Z,977.26
2022-07-29T02:19:08.125Z,977.31
2022-07-29T02:20:08.110Z,977.25
2022-07-29T02:21:15.153Z,977.25
2022-07-29T02:22:09.085Z,977.29
2022-07-29T02:23:08.063Z,977.28
2022-07-29T02:24:08.061Z,977.24
2022-07-29T02:25:08.035Z,977.26
2022-07-29T02:26:09.023Z,977.33
2022-07-29T02:27:08.005Z,977.34
2022-07-29T02:28:08.003Z,977.29
2022-07-29T02:29:07.985Z,977.24
2022-07-29T02:30:07.974Z,977.23
2022-07-29T02:31:07.981Z,977.24
2022-07-29T02:32:07.954Z,977.20
2022-07-29T02:33:07.937Z,977.21
2022-07-29T02:34:07.925Z,977.18
2022-07-29T02:35:07.905Z,977.16
2022-07-29T02:36:07.896Z,977.16
2022-07-29T02:37:07.883Z,977.13
2022-07-29T02:38:07.874Z,977.11
2022-07-29T02:39:07.860Z,977.13
2022-07-29T02:40:07.836Z,977.09
2022-07-29T02:41:07.832Z,977.12
2022-07-29T02:42:07.828Z,977.14
2022-07-29T02:43:07.799Z,977.14
2022-07-29T02:44:07.810Z,977.17
2022-07-29T02:45:07.787Z,977.15
2022-07-29T02:46:12.686Z,977.11
2022-07-29T02:47:08.759Z,977.17
2022-07-29T02:48:07.741Z,977.11
2022-07-29T02:49:07.798Z,977.14
2022-07-29T02:50:07.708Z,977.09
2022-07-29T02:51:07.711Z,977.13
2022-07-29T02:52:07.700Z,977.11
2022-07-29T02:53:07.679Z,977.12
2022-07-29T02:54:07.678Z,977.09
2022-07-29T02:55:07.660Z,977.11
2022-07-29T02:56:07.649Z,977.14
2022-07-29T02:57:07.693Z,977.19
2022-07-29T02:58:07.710Z,977.16
2022-07-29T02:59:07.627Z,977.25
2022-07-29T03:00:07.622Z,977.24
2022-07-29T03:01:08.642Z,977.21
2022-07-29T03:02:09.681Z,977.23
2022-07-29T03:03:08.562Z,977.23
2022-07-29T03:04:07.582Z,977.17
2022-07-29T03:05:07.619Z,977.21
2022-07-29T03:06:07.563Z,977.18
2022-07-29T03:07:07.581Z,977.12
2022-07-29T03:08:08.489Z,977.17
2022-07-29T03:09:12.527Z,977.16
2022-07-29T03:10:10.934Z,977.14
2022-07-29T03:11:07.484Z,977.17
2022-07-29T03:12:07.497Z,977.16
2022-07-29T03:13:07.509Z,977.15
2022-07-29T03:14:07.425Z,977.20
2022-07-29T03:15:07.410Z,977.16
2022-07-29T03:16:07.508Z,977.17
2022-07-29T03:17:07.424Z,977.14
2022-07-29T03:18:07.433Z,977.19
2022-07-29T03:19:07.449Z,977.22
2022-07-29T03:20:07.386Z,977.19
2022-07-29T03:21:07.354Z,977.16
2022-07-29T03:22:07.357Z,977.18
2022-07-29T03:23:07.369Z,977.18
2022-07-29T03:24:12.549Z,977.21
2022-07-29T03:25:08.338Z,977.17
2022-07-29T03:26:07.286Z,977.16
2022-07-29T03:27:07.296Z,977.14
2022-07-29T03:28:07.299Z,977.17
2022-07-29T03:29:07.205Z,977.17
2022-07-29T03:30:10.407Z,977.11
2022-07-29T03:31:07.304Z,977.17
2022-07-29T03:32:08.137Z,977.18
2022-07-29T03:33:13.618Z,977.12
2022-07-29T03:34:08.143Z,977.14
2022-07-29T03:35:07.169Z,977.16
2022-07-29T03:36:07.149Z,977.13
2022-07-29T03:37:07.278Z,977.16
2022-07-29T03:38:07.169Z,977.15
2022-07-29T03:39:07.073Z,977.13
2022-07-29T03:40:07.112Z,977.13
2022-07-29T03:42:17.269Z,977.13
2022-07-29T03:43:17.330Z,977.18
2022-07-29T03:44:17.647Z,977.18
2022-07-29T03:45:17.273Z,977.19
2022-07-29T03:46:17.286Z,977.20
2022-07-29T03:48:27.425Z,977.22
2022-07-29T03:49:27.448Z,977.22
2022-07-29T04:02:56.967Z,977.19
2022-07-29T04:03:57.097Z,977.19
2022-07-29T04:04:56.934Z,977.19
2022-07-29T04:05:56.903Z,977.16
2022-07-29T04:06:56.927Z,977.15
2022-07-29T04:07:57.847Z,977.20
2022-07-29T04:08:56.926Z,977.17
2022-07-29T04:09:56.876Z,977.15
2022-07-29T04:10:56.852Z,977.13
2022-07-29T04:12:03.511Z,977.13
2022-07-29T04:12:57.877Z,977.14
2022-07-29T04:13:56.755Z,977.18
2022-07-29T04:14:56.797Z,977.20
2022-07-29T04:15:56.811Z,977.22
2022-07-29T04:16:56.787Z,977.24
2022-07-29T04:17:56.815Z,977.18
2022-07-29T04:19:18.726Z,977.19
2022-07-29T04:19:56.701Z,977.24
2022-07-29T04:20:56.740Z,977.24
2022-07-29T04:21:56.718Z,977.25
2022-07-29T04:22:56.716Z,977.26
2022-07-29T04:23:56.729Z,977.22
2022-07-29T04:25:01.700Z,977.25
2022-07-29T04:25:57.706Z,977.28
2022-07-29T04:26:56.639Z,977.34
2022-07-29T04:27:56.650Z,977.27
2022-07-29T04:28:56.670Z,977.32
2022-07-29T04:29:57.594Z,977.32
2022-07-29T04:30:56.655Z,977.36
2022-07-29T04:31:56.579Z,977.30
2022-07-29T04:32:56.588Z,977.33
2022-07-29T04:33:56.671Z,977.30
2022-07-29T04:34:56.497Z,977.31
2022-07-29T04:35:56.539Z,977.33
2022-07-29T04:36:56.512Z,977.38
2022-07-29T04:37:56.522Z,977.41
2022-07-29T04:38:56.523Z,977.46
2022-07-29T04:39:56.422Z,977.51
2022-07-29T04:40:56.465Z,977.46
2022-07-29T04:41:58.423Z,977.50
2022-07-29T04:42:56.452Z,977.49
2022-07-29T04:43:56.548Z,977.45
2022-07-29T04:44:56.345Z,977.52
2022-07-29T04:45:56.481Z,977.51
2022-07-29T04:46:56.393Z,977.52
2022-07-29T04:47:56.405Z,977.51
2022-07-29T04:48:56.517Z,977.59
2022-07-29T04:49:56.287Z,977.56
2022-07-29T04:50:56.347Z,977.55
2022-07-29T04:51:56.293Z,977.60
2022-07-29T04:52:57.345Z,977.58
2022-07-29T04:53:56.254Z,977.59
2022-07-29T04:54:56.226Z,977.53
2022-07-29T04:55:56.223Z,977.55
2022-07-29T04:56:56.201Z,977.66
2022-07-29T04:57:56.222Z,977.57
2022-07-29T04:58:56.155Z,977.55
2022-07-29T04:59:56.152Z,977.64
2022-07-29T05:00:56.167Z,977.63
2022-07-29T05:01:56.192Z,977.66
2022-07-29T05:02:56.137Z,977.63
2022-07-29T05:04:00.317Z,977.65
2022-07-29T05:04:56.077Z,977.65
2022-07-29T05:05:56.137Z,977.61
2022-07-29T05:06:56.080Z,977.66
2022-07-29T05:07:56.037Z,977.64
2022-07-29T05:08:56.038Z,977.60
2022-07-29T05:09:56.009Z,977.66
2022-07-29T05:10:56.028Z,977.65
2022-07-29T05:11:56.008Z,977.66
2022-07-29T05:12:56.050Z,977.64
2022-07-29T05:13:55.999Z,977.72
2022-07-29T05:14:55.951Z,977.64
2022-07-29T05:15:55.985Z,977.68
2022-07-29T05:16:56.989Z,977.72
2022-07-29T05:17:55.921Z,977.69
2022-07-29T05:18:55.910Z,977.68
2022-07-29T05:19:55.902Z,977.68
2022-07-29T05:20:56.052Z,977.68
2022-07-29T05:21:55.862Z,977.69
2022-07-29T05:22:55.843Z,977.66
2022-07-29T05:23:56.823Z,977.66
2022-07-29T05:24:55.820Z,977.66
2022-07-29T05:25:55.822Z,977.68
2022-07-29T05:26:55.830Z,977.69
2022-07-29T05:27:55.774Z,977.67
2022-07-29T05:28:55.782Z,977.68
2022-07-29T05:29:55.757Z,977.64
2022-07-29T05:30:55.886Z,977.67
2022-07-29T05:31:55.764Z,977.71
2022-07-29T05:32:55.713Z,977.68
2022-07-29T05:33:55.723Z,977.66
2022-07-29T05:34:55.686Z,977.67
2022-07-29T05:36:00.175Z,977.71
2022-07-29T05:37:17.980Z,977.71
2022-07-29T05:37:55.645Z,977.67
2022-07-29T05:38:55.648Z,977.66
2022-07-29T05:39:56.523Z,977.68
2022-07-29T05:40:55.635Z,977.68
2022-07-29T05:41:55.594Z,977.64
2022-07-29T05:42:55.596Z,977.74
2022-07-29T05:43:55.575Z,977.68
2022-07-29T05:44:55.565Z,977.72
2022-07-29T05:45:55.609Z,977.63
2022-07-29T05:46:55.550Z,977.67
2022-07-29T05:47:55.515Z,977.68
2022-07-29T05:48:55.516Z,977.69
2022-07-29T05:49:55.478Z,977.72
2022-07-29T05:50:55.526Z,977.68
2022-07-29T05:51:55.470Z,977.71
2022-07-29T05:52:55.440Z,977.75
2022-07-29T05:53:55.448Z,977.74
2022-07-29T05:54:55.437Z,977.78
2022-07-29T05:55:55.429Z,977.78
2022-07-29T05:56:55.419Z,977.71
2022-07-29T05:57:55.390Z,977.81
2022-07-29T05:58:55.404Z,977.80
2022-07-29T05:59:55.361Z,977.74
2022-07-29T06:00:55.381Z,977.75
2022-07-29T06:01:55.397Z,977.76
2022-07-29T06:02:55.339Z,977.75
2022-07-29T06:03:55.407Z,977.73
2022-07-29T06:04:55.337Z,977.72
2022-07-29T06:05:55.301Z,977.71
2022-07-29T06:06:55.270Z,977.73
2022-07-29T06:07:55.253Z,977.74
2022-07-29T06:08:55.252Z,977.70
2022-07-29T06:09:55.223Z,977.77
2022-07-29T06:10:55.230Z,977.70
2022-07-29T06:11:55.201Z,977.71
2022-07-29T06:12:55.196Z,977.73
2022-07-29T06:13:55.163Z,977.78
2022-07-29T06:14:55.174Z,977.71
2022-07-29T06:15:55.196Z,977.82
2022-07-29T06:16:55.155Z,977.83
2022-07-29T06:18:00.578Z,977.80
2022-07-29T06:18:56.212Z,977.75
2022-07-29T06:19:55.105Z,977.73
2022-07-29T06:20:55.095Z,977.71
2022-07-29T06:21:55.088Z,977.68
2022-07-29T06:22:55.094Z,977.74
2022-07-29T06:23:55.101Z,977.69
2022-07-29T06:24:55.117Z,977.69
2022-07-29T06:25:55.023Z,977.76
2022-07-29T06:26:55.069Z,977.79
2022-07-29T06:27:55.034Z,977.77
2022-07-29T06:28:55.037Z,977.72
2022-07-29T06:29:55.042Z,977.74
2022-07-29T06:30:55.039Z,977.76
2022-07-29T06:31:54.985Z,977.73
2022-07-29T06:32:54.981Z,977.75
2022-07-29T06:33:54.967Z,977.71
2022-07-29T06:35:11.840Z,977.68
2022-07-29T06:35:55.879Z,977.63
2022-07-29T06:36:54.930Z,977.67
2022-07-29T06:37:55.276Z,977.63
2022-07-29T06:38:54.899Z,977.62
2022-07-29T06:39:59.307Z,977.66
2022-07-29T06:40:54.893Z,977.70
2022-07-29T06:41:54.849Z,977.61
2022-07-29T06:42:56.936Z,977.59
2022-07-29T06:43:55.299Z,977.66
2022-07-29T06:44:54.859Z,977.66
2022-07-29T06:45:54.982Z,977.65
2022-07-29T06:46:54.782Z,977.63
2022-07-29T06:47:54.770Z,977.70
2022-07-29T06:48:55.854Z,977.67
2022-07-29T06:49:54.777Z,977.64
2022-07-29T06:50:55.411Z,977.63
2022-07-29T06:51:54.720Z,977.69
2022-07-29T06:52:54.701Z,977.68
2022-07-29T06:53:59.671Z,977.64
2022-07-29T06:54:55.745Z,977.66
2022-07-29T06:55:55.829Z,977.64
2022-07-29T06:56:54.633Z,977.65
2022-07-29T06:57:54.635Z,977.65
2022-07-29T06:58:54.642Z,977.68
2022-07-29T06:59:54.667Z,977.63
2022-07-29T07:00:55.723Z,977.73
2022-07-29T07:01:54.572Z,977.71
2022-07-29T07:02:54.618Z,977.70
2022-07-29T07:03:54.570Z,977.71
2022-07-29T07:04:54.582Z,977.69
2022-07-29T07:05:54.586Z,977.69
2022-07-29T07:06:54.530Z,977.68
2022-07-29T07:07:54.486Z,977.70
2022-07-29T07:08:54.509Z,977.73
2022-07-29T07:09:55.156Z,977.67
2022-07-29T07:10:54.438Z,977.80
2022-07-29T07:11:54.433Z,977.70
2022-07-29T07:12:54.437Z,977.72
2022-07-29T07:13:58.060Z,977.73
2022-07-29T07:14:55.478Z,977.73
2022-07-29T07:15:54.458Z,977.72
2022-07-29T07:16:54.426Z,977.70
2022-07-29T07:17:54.345Z,977.72
2022-07-29T07:18:54.380Z,977.68
2022-07-29T07:20:15.360Z,977.61
2022-07-29T07:20:55.309Z,977.59
2022-07-29T07:21:54.320Z,977.66
2022-07-29T07:22:54.272Z,977.64
2022-07-29T07:23:56.372Z,977.65
2022-07-29T07:24:54.262Z,977.67
2022-07-29T07:26:15.312Z,977.63
2022-07-29T07:26:54.229Z,977.67
2022-07-29T07:27:54.324Z,977.64
2022-07-29T07:28:55.252Z,977.63
2022-07-29T07:30:15.238Z,977.63
2022-07-29T07:30:54.182Z,977.64
2022-07-29T07:31:58.957Z,977.58
2022-07-29T07:32:55.228Z,977.62
2022-07-29T07:33:54.164Z,977.60
2022-07-29T07:34:54.171Z,977.60
2022-07-29T07:35:55.192Z,977.59
2022-07-29T07:36:54.122Z,977.67
2022-07-29T07:37:54.084Z,977.55
2022-07-29T07:38:54.064Z,977.53
2022-07-29T07:39:54.147Z,977.58
2022-07-29T07:40:54.310Z,977.55
2022-07-29T07:41:56.094Z,977.48
2022-07-29T07:42:54.073Z,977.51
2022-07-29T07:43:53.995Z,977.51
2022-07-29T07:45:12.621Z,977.56
2022-07-29T07:45:55.084Z,977.49
2022-07-29T07:47:07.847Z,977.53
2022-07-29T07:47:57.121Z,977.52
2022-07-29T07:49:17.409Z,977.57
2022-07-29T07:49:54.010Z,977.56
2022-07-29T07:50:54.021Z,977.53
2022-07-29T07:51:54.018Z,977.55
2022-07-29T07:52:53.917Z,977.54
2022-07-29T07:53:54.935Z,977.53
2022-07-29T07:54:53.907Z,977.54
2022-07-29T07:56:09.866Z,977.52
2022-07-29T07:56:54.968Z,977.49
2022-07-29T07:57:53.877Z,977.52
2022-07-29T07:58:53.829Z,977.53
2022-07-29T07:59:53.802Z,977.47
2022-07-29T08:00:53.854Z,977.51
2022-07-29T08:01:56.253Z,977.51
2022-07-29T08:02:53.834Z,977.57
2022-07-29T08:03:53.761Z,977.49
2022-07-29T08:04:53.712Z,977.53
2022-07-29T08:05:53.773Z,977.52
2022-07-29T08:06:53.771Z,977.57
2022-07-29T08:07:53.793Z,977.52
2022-07-29T08:08:56.237Z,977.50
2022-07-29T08:09:53.692Z,977.53
2022-07-29T08:10:53.732Z,977.49
2022-07-29T08:11:53.710Z,977.46
2022-07-29T08:12:53.754Z,977.39
2022-07-29T08:13:53.662Z,977.44
2022-07-29T08:15:14.625Z,977.40
2022-07-29T08:15:53.586Z,977.43
2022-07-29T08:16:53.707Z,977.34
2022-07-29T08:17:53.656Z,977.38
2022-07-29T08:18:53.598Z,977.35
2022-07-29T08:19:53.564Z,977.37
2022-07-29T08:20:53.519Z,977.33
2022-07-29T08:21:54.029Z,977.33
2022-07-29T08:22:53.585Z,977.37
2022-07-29T08:24:00.667Z,977.32
2022-07-29T08:24:54.859Z,977.32
2022-07-29T08:25:54.957Z,977.39
2022-07-29T08:26:53.517Z,977.37
2022-07-29T08:27:53.517Z,977.35
2022-07-29T08:28:53.455Z,977.33
2022-07-29T08:29:53.433Z,977.45
2022-07-29T08:30:53.430Z,977.35
2022-07-29T08:31:53.664Z,977.38
2022-07-29T08:32:55.520Z,977.35
2022-07-29T08:33:53.383Z,977.31
2022-07-29T08:34:53.360Z,977.34
2022-07-29T08:35:53.362Z,977.28
2022-07-29T08:36:53.361Z,977.31
2022-07-29T08:37:53.369Z,977.37
2022-07-29T08:38:54.347Z,977.35
2022-07-29T08:39:53.271Z,977.37
2022-07-29T08:40:53.282Z,977.34
2022-07-29T08:41:56.741Z,977.35
2022-07-29T08:42:53.302Z,977.41
2022-07-29T08:43:53.305Z,977.35
2022-07-29T08:44:54.267Z,977.35
2022-07-29T08:45:53.264Z,977.33
2022-07-29T08:46:53.165Z,977.29
2022-07-29T08:47:53.242Z,977.28
2022-07-29T08:48:53.292Z,977.27
2022-07-29T08:49:53.180Z,977.24
2022-07-29T08:50:53.157Z,977.29
2022-07-29T08:51:53.198Z,977.29
2022-07-29T08:52:57.918Z,977.26
2022-07-29T08:53:54.123Z,977.26
2022-07-29T08:54:53.125Z,977.27
2022-07-29T08:55:54.114Z,977.27
2022-07-29T08:56:54.852Z,977.27
2022-07-29T08:57:54.575Z,977.27
2022-07-29T08:58:53.454Z,977.21
2022-07-29T08:59:53.034Z,977.22
2022-07-29T09:00:53.073Z,977.21
2022-07-29T09:01:53.464Z,977.25
2022-07-29T09:02:52.966Z,977.24
2022-07-29T09:03:53.095Z,977.19
2022-07-29T09:04:52.989Z,977.17
2022-07-29T09:05:52.948Z,977.19
2022-07-29T09:06:52.981Z,977.20
2022-07-29T09:07:52.950Z,977.18
2022-07-29T09:08:52.970Z,977.14
2022-07-29T09:09:52.913Z,977.13
2022-07-29T09:10:52.880Z,977.14
2022-07-29T09:11:53.330Z,977.13
2022-07-29T09:12:52.923Z,977.10
2022-07-29T09:13:53.837Z,976.99
2022-07-29T09:14:52.834Z,977.01
2022-07-29T09:15:52.811Z,977.00
2022-07-29T09:16:54.007Z,977.06
2022-07-29T09:17:52.822Z,977.05
2022-07-29T09:18:53.763Z,976.99
2022-07-29T09:19:52.764Z,976.98
2022-07-29T09:20:52.752Z,977.00
2022-07-29T09:21:52.773Z,977.04
2022-07-29T09:22:52.764Z,977.01
2022-07-29T09:23:52.689Z,977.01
2022-07-29T09:24:53.035Z,977.01
2022-07-29T09:25:53.083Z,976.99
2022-07-29T09:26:52.889Z,976.96
2022-07-29T09:27:53.372Z,976.96
2022-07-29T09:28:52.687Z,976.99
2022-07-29T09:29:55.917Z,977.01
2022-07-29T09:30:52.836Z,977.06
2022-07-29T09:31:52.685Z,977.01
2022-07-29T09:32:52.650Z,976.94
2022-07-29T09:33:52.645Z,977.00
2022-07-29T09:34:56.828Z,976.98
2022-07-29T09:37:03.798Z,977.00
2022-07-29T09:38:03.815Z,976.87
2022-07-29T09:39:03.835Z,976.93
2022-07-29T09:40:03.757Z,976.99
2022-07-29T09:41:05.766Z,976.94
2022-07-29T09:42:04.782Z,976.94
2022-07-29T09:43:03.758Z,976.90
2022-07-29T09:44:03.779Z,976.82
2022-07-29T09:45:03.678Z,976.86
2022-07-29T09:46:03.680Z,976.89
2022-07-29T09:47:04.746Z,976.90
2022-07-29T10:03:22.722Z,977.04
2022-07-29T10:04:22.564Z,976.89
2022-07-29T10:05:23.704Z,976.96
2022-07-29T10:06:22.677Z,976.97
2022-07-29T10:07:22.457Z,976.98
2022-07-29T10:08:22.454Z,976.95
2022-07-29T10:09:24.472Z,976.94
2022-07-29T10:10:22.705Z,976.91
2022-07-29T10:11:22.416Z,976.94
2022-07-29T10:12:22.845Z,976.85
2022-07-29T10:13:22.436Z,976.90
2022-07-29T10:14:23.429Z,976.87
2022-07-29T10:15:22.666Z,976.79
2022-07-29T10:16:22.340Z,976.88
2022-07-29T10:17:22.362Z,976.85
2022-07-29T10:18:22.338Z,976.84
2022-07-29T10:19:22.545Z,976.85
2022-07-29T10:20:22.338Z,976.90
2022-07-29T10:21:35.038Z,976.85
2022-07-29T10:22:50.708Z,976.83
2022-07-29T10:23:23.220Z,976.78
2022-07-29T10:24:22.260Z,976.82
2022-07-29T10:25:22.428Z,976.83
2022-07-29T10:26:22.298Z,976.86
2022-07-29T10:27:22.191Z,976.85
2022-07-29T10:28:22.360Z,976.74
2022-07-29T10:29:22.202Z,976.77
2022-07-29T10:30:22.360Z,976.73
2022-07-29T10:31:22.241Z,976.77
2022-07-29T10:32:22.116Z,976.79
2022-07-29T10:33:22.149Z,976.80
2022-07-29T10:34:22.122Z,976.74
2022-07-29T10:35:22.163Z,976.73
2022-07-29T10:36:22.141Z,976.73
2022-07-29T10:37:22.034Z,976.72
2022-07-29T10:38:22.054Z,976.75
2022-07-29T10:39:22.353Z,976.76
2022-07-29T10:40:22.104Z,976.73
2022-07-29T10:41:22.088Z,976.69
2022-07-29T10:42:29.820Z,976.66
2022-07-29T10:43:23.028Z,976.65
2022-07-29T10:44:23.301Z,976.69
2022-07-29T10:45:22.038Z,976.69
2022-07-29T10:46:22.058Z,976.65
2022-07-29T10:47:21.918Z,976.64
2022-07-29T10:48:22.204Z,976.66
2022-07-29T10:49:24.677Z,976.65
2022-07-29T10:50:22.887Z,976.63
2022-07-29T10:51:21.948Z,976.64
2022-07-29T10:52:30.118Z,976.62
2022-07-29T10:53:22.872Z,976.61
2022-07-29T10:54:21.902Z,976.66
2022-07-29T10:55:22.822Z,976.64
2022-07-29T10:56:22.799Z,976.69
2022-07-29T10:57:21.772Z,976.63
2022-07-29T10:58:21.883Z,976.57
2022-07-29T10:59:22.957Z,976.60
2022-07-29T11:00:21.820Z,976.56
2022-07-29T11:01:37.169Z,976.53
2022-07-29T11:02:41.401Z,976.53
2022-07-29T11:03:22.718Z,976.47
2022-07-29T11:04:21.730Z,976.44
2022-07-29T11:05:21.961Z,976.49
2022-07-29T11:06:26.444Z,976.46
2022-07-29T11:07:22.656Z,976.45
2022-07-29T11:08:26.001Z,976.41
2022-07-29T11:09:35.282Z,976.42
2022-07-29T11:10:22.624Z,976.38
2022-07-29T11:11:22.238Z,976.41
2022-07-29T11:12:21.677Z,976.44
2022-07-29T11:13:21.585Z,976.45
2022-07-29T11:14:26.562Z,976.45
2022-07-29T11:15:22.717Z,976.53
2022-07-29T11:16:21.630Z,976.50
2022-07-29T11:17:21.613Z,976.54
2022-07-29T11:18:21.514Z,976.52
2022-07-29T11:19:26.656Z,976.49
2022-07-29T11:20:22.586Z,976.51
2022-07-29T11:21:23.253Z,976.53
2022-07-29T11:22:22.499Z,976.51
2022-07-29T11:23:22.468Z,976.46
2022-07-29T11:24:29.112Z,976.48
2022-07-29T11:25:42.527Z,976.52
2022-07-29T11:26:23.195Z,976.49
2022-07-29T11:27:21.478Z,976.51
2022-07-29T11:28:22.383Z,976.46
2022-07-29T11:30:31.478Z,0.00
2022-07-29T11:31:31.528Z,0.00
2022-07-29T11:32:31.539Z,0.00
2022-07-29T11:34:32.423Z,0.00
2022-07-29T11:35:38.488Z,0.00
2022-07-29T11:36:32.551Z,0.00
2022-07-29T11:37:31.479Z,0.00
2022-07-29T11:38:31.745Z,0.00
2022-07-29T11:39:36.955Z,0.00
2022-07-29T11:40:32.362Z,0.00
2022-07-29T11:41:31.863Z,0.00
2022-07-29T11:42:34.423Z,0.00
2022-07-29T11:43:31.415Z,0.00
2022-07-29T11:44:31.322Z,0.00
2022-07-29T11:45:42.004Z,0.00
2022-07-29T11:46:32.276Z,0.00
2022-07-29T11:47:31.405Z,0.00
2022-07-29T11:48:32.601Z,0.00
2022-07-29T11:49:32.035Z,0.00
2022-07-29T11:50:31.221Z,0.00
2022-07-29T11:51:33.329Z,0.00
2022-07-29T11:52:31.286Z,0.00
2022-07-29T11:53:32.984Z,0.00
2022-07-29T11:54:31.325Z,0.00
2022-07-29T11:55:32.427Z,0.00
2022-07-29T11:56:31.143Z,0.00
2022-07-29T11:57:36.239Z,0.00
2022-07-29T11:58:31.210Z,0.00
2022-07-29T11:59:32.972Z,0.00
2022-07-29T12:01:04.444Z,0.00
2022-07-29T12:01:31.070Z,0.00
2022-07-29T12:02:37.120Z,0.00
2022-07-29T12:04:32.029Z,0.00
2022-07-29T12:05:36.494Z,0.00
2022-07-29T12:06:32.078Z,0.00
2022-07-29T12:07:01.472Z,0.00
2022-07-29T12:07:34.757Z,0.00
2022-07-29T12:08:32.010Z,0.00
2022-07-29T12:09:30.961Z,0.00
2022-07-29T12:10:31.964Z,0.00
2022-07-29T12:11:30.991Z,0.00
2022-07-29T12:12:30.922Z,0.00
2022-07-29T12:13:37.698Z,0.00
2022-07-29T12:14:52.931Z,0.00
2022-07-29T12:15:46.333Z,0.00
2022-07-29T12:16:31.999Z,0.00
2022-07-29T12:17:30.907Z,0.00
2022-07-29T12:18:30.854Z,0.00
2022-07-29T12:19:31.434Z,0.00
2022-07-29T12:20:30.846Z,0.00
2022-07-29T12:21:31.021Z,0.00
2022-07-29T12:22:30.809Z,0.00
2022-07-29T12:23:35.027Z,0.00
2022-07-29T12:24:30.787Z,0.00
2022-07-29T12:25:32.479Z,0.00
2022-07-29T12:26:30.767Z,0.00
2022-07-29T12:27:31.351Z,0.00
2022-07-29T12:28:30.753Z,0.00
2022-07-29T12:29:33.866Z,0.00
2022-07-29T12:30:31.709Z,0.00
2022-07-29T12:31:43.734Z,0.00
2022-07-29T12:32:31.724Z,0.00
2022-07-29T12:33:30.669Z,0.00
2022-07-29T12:34:30.668Z,0.00
2022-07-29T12:35:30.642Z,0.00
2022-07-29T12:36:30.658Z,0.00
2022-07-29T12:37:31.870Z,0.00
2022-07-29T12:38:31.611Z,0.00
2022-07-29T12:39:30.591Z,0.00
2022-07-29T12:40:30.583Z,0.00
2022-07-29T12:41:30.568Z,0.00
2022-07-29T12:42:30.560Z,0.00
2022-07-29T12:43:30.533Z,0.00
2022-07-29T12:44:30.530Z,0.00
2022-07-29T12:45:30.512Z,0.00
2022-07-29T12:46:30.547Z,0.00
2022-07-29T12:47:30.508Z,0.00
2022-07-29T12:48:30.474Z,0.00
2022-07-29T12:49:30.516Z,0.00
2022-07-29T12:50:31.458Z,0.00
2022-07-29T12:51:30.448Z,0.00
2022-07-29T12:52:30.428Z,0.00
2022-07-29T12:53:30.422Z,0.00
2022-07-29T12:54:30.411Z,0.00
2022-07-29T12:55:30.389Z,0.00
2022-07-29T12:56:42.920Z,0.00
2022-07-29T12:57:31.362Z,0.00
2022-07-29T12:58:30.360Z,0.00
2022-07-29T12:59:30.349Z,0.00
2022-07-29T13:00:30.371Z,0.00
2022-07-29T13:01:30.329Z,0.00
2022-07-29T13:02:30.360Z,0.00
2022-07-29T13:03:30.300Z,0.00
2022-07-29T13:04:31.290Z,0.00
2022-07-29T13:05:30.271Z,0.00
2022-07-29T13:06:30.272Z,0.00
2022-07-29T13:07:54.174Z,0.00
2022-07-29T13:08:31.232Z,0.00